createdAt,value
2023-05-13T00:00:56.314Z,19.7411
2023-05-13T00:01:58.046Z,19.7559
2023-05-13T00:02:59.871Z,19.7651
2023-05-13T00:04:01.528Z,19.7485
2023-05-13T00:05:03.284Z,19.7464
2023-05-13T00:06:04.997Z,19.7440
2023-05-13T00:07:06.706Z,19.7565
2023-05-13T00:08:08.468Z,19.7631
2023-05-13T00:09:10.179Z,19.7620
2023-05-13T00:10:11.909Z,19.7651
2023-05-13T00:11:13.683Z,19.7590
2023-05-13T00:12:15.404Z,19.7781
2023-05-13T00:13:17.135Z,19.7717
2023-05-13T00:14:18.912Z,19.7705
2023-05-13T00:15:20.600Z,19.7791
2023-05-13T00:16:22.380Z,19.7770
2023-05-13T00:17:24.068Z,19.7717
2023-05-13T00:18:25.812Z,19.7662
2023-05-13T00:19:27.537Z,19.7579
2023-05-13T00:20:29.257Z,19.7758
2023-05-13T00:21:30.987Z,19.7890
2023-05-13T00:22:32.699Z,19.7894
2023-05-13T00:23:34.437Z,19.7824
2023-05-13T00:24:36.192Z,19.7929
2023-05-13T00:25:37.906Z,19.7902
2023-05-13T00:26:39.619Z,19.7851
2023-05-13T00:27:41.387Z,19.7838
2023-05-13T00:28:43.102Z,19.8023
2023-05-13T00:29:44.840Z,19.7916
2023-05-13T00:30:46.571Z,19.8183
2023-05-13T00:31:48.438Z,19.8214
2023-05-13T00:32:50.135Z,19.8048
2023-05-13T00:33:51.865Z,19.7836
2023-05-13T00:34:53.590Z,19.7894
2023-05-13T00:35:55.308Z,19.7738
2023-05-13T00:36:57.038Z,19.8042
2023-05-13T00:37:58.793Z,19.7869
2023-05-13T00:39:00.509Z,19.7892
2023-05-13T00:40:02.241Z,19.8107
2023-05-13T00:41:03.996Z,19.8138
2023-05-13T00:42:05.697Z,19.8224
2023-05-13T00:43:07.427Z,19.8265
2023-05-13T00:44:09.176Z,19.8027
2023-05-13T00:45:10.913Z,19.8235
2023-05-13T00:46:12.636Z,19.8040
2023-05-13T00:47:14.542Z,19.7949
2023-05-13T00:48:16.105Z,19.8280
2023-05-13T00:49:17.811Z,19.8268
2023-05-13T00:50:19.685Z,19.8140
2023-05-13T00:51:21.302Z,19.8376
2023-05-13T00:52:23.016Z,19.8247
2023-05-13T00:53:24.751Z,19.8255
2023-05-13T00:54:26.509Z,19.8035
2023-05-13T00:55:28.233Z,19.8148
2023-05-13T00:56:29.987Z,19.8282
2023-05-13T00:57:31.683Z,19.8549
2023-05-13T00:58:33.450Z,19.8356
2023-05-13T00:59:35.182Z,19.8391
2023-05-13T01:00:36.883Z,19.8181
2023-05-13T01:01:38.708Z,19.8159
2023-05-13T01:02:40.492Z,19.8325
2023-05-13T01:03:42.101Z,19.8212
2023-05-13T01:04:43.808Z,19.8214
2023-05-13T01:05:45.572Z,19.8255
2023-05-13T01:06:47.275Z,19.8311
2023-05-13T01:07:49.017Z,19.8444
2023-05-13T01:08:50.761Z,19.8477
2023-05-13T01:09:52.494Z,19.8265
2023-05-13T01:10:54.207Z,19.8374
2023-05-13T01:11:55.965Z,19.8278
2023-05-13T01:12:57.700Z,19.8485
2023-05-13T01:13:59.401Z,19.8344
2023-05-13T01:15:01.167Z,19.8506
2023-05-13T01:16:02.866Z,19.8606
2023-05-13T01:17:04.750Z,19.8680
2023-05-13T01:18:06.486Z,19.8629
2023-05-13T01:19:08.090Z,19.8541
2023-05-13T01:20:09.815Z,19.8732
2023-05-13T01:21:11.578Z,19.8658
2023-05-13T01:22:13.300Z,19.8775
2023-05-13T01:23:15.021Z,19.8582
2023-05-13T01:24:16.801Z,19.8656
2023-05-13T01:25:18.501Z,19.8637
2023-05-13T01:26:20.221Z,19.8839
2023-05-13T01:27:21.948Z,19.8545
2023-05-13T01:28:23.664Z,19.8530
2023-05-13T01:29:25.396Z,19.8516
2023-05-13T01:30:27.145Z,19.8793
2023-05-13T01:31:28.930Z,19.8806
2023-05-13T01:32:30.619Z,19.8744
2023-05-13T01:33:32.346Z,19.8785
2023-05-13T01:34:34.050Z,19.8943
2023-05-13T01:35:35.792Z,19.8742
2023-05-13T01:36:37.528Z,19.8660
2023-05-13T01:37:39.252Z,19.8680
2023-05-13T01:38:40.997Z,19.8843
2023-05-13T01:39:42.715Z,19.8956
2023-05-13T01:40:44.451Z,19.8806
2023-05-13T01:41:46.207Z,19.8793
2023-05-13T01:42:47.923Z,19.8678
2023-05-13T01:43:49.646Z,19.8670
2023-05-13T01:44:51.404Z,19.8939
2023-05-13T01:45:53.137Z,19.8947
2023-05-13T01:46:54.921Z,19.8742
2023-05-13T01:47:56.616Z,19.8783
2023-05-13T01:48:58.324Z,19.8859
2023-05-13T01:50:00.041Z,19.8721
2023-05-13T01:51:01.803Z,19.9013
2023-05-13T01:52:03.519Z,19.8956
2023-05-13T01:53:05.221Z,19.8968
2023-05-13T01:54:06.960Z,19.8689
2023-05-13T01:55:08.705Z,19.8680
2023-05-13T01:56:10.426Z,19.8711
2023-05-13T01:57:12.146Z,19.8773
2023-05-13T01:58:13.894Z,19.8785
2023-05-13T01:59:15.599Z,19.8818
2023-05-13T02:00:17.338Z,19.8845
2023-05-13T02:01:20.455Z,19.8765
2023-05-13T02:02:20.864Z,19.8742
2023-05-13T02:03:23.385Z,19.8890
2023-05-13T02:04:24.297Z,19.8754
2023-05-13T02:05:26.014Z,19.8852
2023-05-13T02:07:53.716Z,19.8990
2023-05-13T02:08:55.468Z,19.8960
2023-05-13T02:09:57.207Z,19.8937
2023-05-13T02:10:58.918Z,19.8937
2023-05-13T02:12:00.681Z,19.8925
2023-05-13T02:13:02.426Z,19.8816
2023-05-13T02:14:04.115Z,19.8826
2023-05-13T02:15:05.880Z,19.8904
2023-05-13T02:16:07.714Z,19.9056
2023-05-13T02:17:09.317Z,19.8820
2023-05-13T02:18:11.095Z,19.8956
2023-05-13T02:19:12.854Z,19.8861
2023-05-13T02:20:14.535Z,19.8947
2023-05-13T02:21:16.267Z,19.8804
2023-05-13T02:22:18.082Z,19.8837
2023-05-13T02:23:19.719Z,19.8949
2023-05-13T02:24:21.459Z,19.8793
2023-05-13T02:25:23.212Z,19.8913
2023-05-13T02:26:24.909Z,19.8978
2023-05-13T02:27:26.666Z,19.8980
2023-05-13T02:28:28.390Z,19.9003
2023-05-13T02:29:30.108Z,19.8991
2023-05-13T02:30:31.846Z,19.8927
2023-05-13T02:31:33.630Z,19.8999
2023-05-13T02:32:35.327Z,19.8960
2023-05-13T02:33:37.045Z,19.9036
2023-05-13T02:34:38.804Z,19.8947
2023-05-13T02:35:40.532Z,19.8966
2023-05-13T02:36:47.093Z,19.8892
2023-05-13T02:37:45.619Z,19.8839
2023-05-13T02:38:45.707Z,19.8763
2023-05-13T02:39:47.453Z,19.8797
2023-05-13T02:40:49.175Z,19.8839
2023-05-13T02:41:51.004Z,19.8721
2023-05-13T02:42:52.630Z,19.8752
2023-05-13T02:43:54.360Z,19.8847
2023-05-13T02:44:56.113Z,19.8732
2023-05-13T02:45:57.876Z,19.8711
2023-05-13T02:46:59.576Z,19.8804
2023-05-13T02:48:01.369Z,19.8927
2023-05-13T02:49:03.048Z,19.8915
2023-05-13T02:50:04.752Z,19.8797
2023-05-13T02:51:06.513Z,19.8834
2023-05-13T02:52:08.269Z,19.8828
2023-05-13T02:53:09.953Z,19.8806
2023-05-13T02:54:11.711Z,19.8849
2023-05-13T02:55:13.511Z,19.8783
2023-05-13T02:56:15.152Z,19.8837
2023-05-13T02:57:16.889Z,19.8980
2023-05-13T02:58:18.754Z,19.8859
2023-05-13T02:59:20.353Z,19.8904
2023-05-13T03:00:22.317Z,19.8721
2023-05-13T03:01:23.915Z,19.8857
2023-05-13T03:02:25.622Z,19.8795
2023-05-13T03:03:27.375Z,19.8865
2023-05-13T03:04:29.047Z,19.8763
2023-05-13T03:05:30.800Z,19.8785
2023-05-13T03:06:32.499Z,19.8818
2023-05-13T03:07:34.270Z,19.8752
2023-05-13T03:08:35.984Z,19.8763
2023-05-13T03:09:37.692Z,19.8824
2023-05-13T03:10:39.450Z,19.8935
2023-05-13T03:11:41.188Z,19.8878
2023-05-13T03:12:42.912Z,19.8851
2023-05-13T03:13:44.653Z,19.8828
2023-05-13T03:14:46.387Z,19.8814
2023-05-13T03:15:48.130Z,19.8804
2023-05-13T03:16:49.856Z,19.9046
2023-05-13T03:17:51.640Z,19.8966
2023-05-13T03:18:53.430Z,19.8839
2023-05-13T03:19:55.068Z,19.8913
2023-05-13T03:20:56.773Z,19.8873
2023-05-13T03:21:58.583Z,19.8937
2023-05-13T03:23:00.259Z,19.8849
2023-05-13T03:24:02.001Z,19.8882
2023-05-13T03:25:03.711Z,19.8882
2023-05-13T03:26:05.440Z,19.8859
2023-05-13T03:27:07.191Z,19.8861
2023-05-13T03:28:08.942Z,19.8880
2023-05-13T03:29:10.643Z,19.9023
2023-05-13T03:30:12.401Z,19.8857
2023-05-13T03:31:14.208Z,19.8781
2023-05-13T03:32:15.840Z,19.8793
2023-05-13T03:33:17.603Z,19.8785
2023-05-13T03:34:19.433Z,19.8847
2023-05-13T03:35:21.046Z,19.8972
2023-05-13T03:36:22.786Z,19.8742
2023-05-13T03:37:24.537Z,19.8814
2023-05-13T03:38:26.250Z,19.8775
2023-05-13T03:39:27.986Z,19.8958
2023-05-13T03:40:29.743Z,19.8826
2023-05-13T03:41:31.470Z,19.8816
2023-05-13T03:42:33.195Z,19.8923
2023-05-13T03:43:34.950Z,19.8732
2023-05-13T03:44:36.665Z,19.8648
2023-05-13T03:45:38.405Z,19.8900
2023-05-13T03:46:40.195Z,19.8701
2023-05-13T03:47:41.929Z,19.8721
2023-05-13T03:48:43.610Z,19.8701
2023-05-13T03:49:45.358Z,19.8732
2023-05-13T03:50:47.098Z,19.8650
2023-05-13T03:51:48.831Z,19.8730
2023-05-13T03:52:50.572Z,19.8711
2023-05-13T03:53:52.301Z,19.8639
2023-05-13T03:54:54.017Z,19.8754
2023-05-13T03:55:55.771Z,19.8565
2023-05-13T03:56:57.510Z,19.8670
2023-05-13T03:57:59.220Z,19.8742
2023-05-13T03:59:00.968Z,19.8828
2023-05-13T04:00:02.693Z,19.8797
2023-05-13T04:01:04.445Z,19.8648
2023-05-13T04:02:06.207Z,19.8660
2023-05-13T04:03:07.949Z,19.8691
2023-05-13T04:04:09.672Z,19.8619
2023-05-13T04:05:11.449Z,19.8648
2023-05-13T04:06:13.114Z,19.8670
2023-05-13T04:07:14.860Z,19.8615
2023-05-13T04:08:16.600Z,19.8691
2023-05-13T04:09:18.342Z,19.8576
2023-05-13T04:10:20.427Z,19.8580
2023-05-13T04:11:21.798Z,19.8732
2023-05-13T04:12:23.531Z,19.8650
2023-05-13T04:13:25.292Z,19.8627
2023-05-13T04:14:27.028Z,19.8635
2023-05-13T04:15:28.763Z,19.8594
2023-05-13T04:16:30.538Z,19.8711
2023-05-13T04:17:32.261Z,19.8639
2023-05-13T04:18:34.009Z,19.8576
2023-05-13T04:19:35.684Z,19.8660
2023-05-13T04:20:37.428Z,19.8645
2023-05-13T04:21:39.187Z,19.8594
2023-05-13T04:22:40.934Z,19.8648
2023-05-13T04:23:42.662Z,19.8465
2023-05-13T04:24:44.384Z,19.8518
2023-05-13T04:25:46.113Z,19.8522
2023-05-13T04:26:47.846Z,19.8465
2023-05-13T04:27:49.601Z,19.8508
2023-05-13T04:28:51.341Z,19.8385
2023-05-13T04:29:53.050Z,19.8444
2023-05-13T04:30:54.783Z,19.8422
2023-05-13T04:31:56.592Z,19.8574
2023-05-13T04:32:58.352Z,19.8648
2023-05-13T04:34:00.041Z,19.8530
2023-05-13T04:35:01.721Z,19.8475
2023-05-13T04:36:03.457Z,19.8483
2023-05-13T04:37:05.181Z,19.8541
2023-05-13T04:38:06.968Z,19.8442
2023-05-13T04:39:08.677Z,19.8452
2023-05-13T04:40:10.408Z,19.8452
2023-05-13T04:41:12.116Z,19.8374
2023-05-13T04:42:13.852Z,19.8578
2023-05-13T04:43:15.586Z,19.8479
2023-05-13T04:44:17.351Z,19.8450
2023-05-13T04:45:19.123Z,19.8483
2023-05-13T04:46:20.874Z,19.8432
2023-05-13T04:47:22.577Z,19.8436
2023-05-13T04:48:24.271Z,19.8364
2023-05-13T04:49:25.983Z,19.8354
2023-05-13T04:50:27.730Z,19.8329
2023-05-13T04:51:29.446Z,19.8409
2023-05-13T04:52:31.212Z,19.8397
2023-05-13T04:53:32.953Z,19.8366
2023-05-13T04:54:34.668Z,19.8500
2023-05-13T04:55:36.394Z,19.8440
2023-05-13T04:56:38.124Z,19.8352
2023-05-13T04:57:39.885Z,19.8253
2023-05-13T04:58:41.617Z,19.8329
2023-05-13T04:59:43.355Z,19.8348
2023-05-13T05:00:45.067Z,19.8344
2023-05-13T05:01:46.822Z,19.8385
2023-05-13T05:02:48.628Z,19.8440
2023-05-13T05:03:50.382Z,19.8233
2023-05-13T05:04:52.023Z,19.8286
2023-05-13T05:05:53.743Z,19.8298
2023-05-13T05:06:55.497Z,19.8245
2023-05-13T05:07:57.199Z,19.8372
2023-05-13T05:08:58.955Z,19.8274
2023-05-13T05:10:00.691Z,19.8284
2023-05-13T05:11:02.399Z,19.8235
2023-05-13T05:12:04.150Z,19.8288
2023-05-13T05:13:05.875Z,19.8321
2023-05-13T05:14:07.623Z,19.8311
2023-05-13T05:15:09.367Z,19.8202
2023-05-13T05:16:11.091Z,19.8212
2023-05-13T05:17:12.824Z,19.8245
2023-05-13T05:18:14.619Z,19.8224
2023-05-13T05:19:16.328Z,19.8243
2023-05-13T05:20:18.024Z,19.8263
2023-05-13T05:21:19.760Z,19.8278
2023-05-13T05:22:21.480Z,19.8255
2023-05-13T05:23:23.218Z,19.8222
2023-05-13T05:24:24.946Z,19.8161
2023-05-13T05:25:26.701Z,19.8181
2023-05-13T05:26:28.424Z,19.8206
2023-05-13T05:27:30.138Z,19.8202
2023-05-13T05:28:31.869Z,19.8181
2023-05-13T05:29:33.600Z,19.8161
2023-05-13T05:30:35.385Z,19.8169
2023-05-13T05:31:37.099Z,19.8097
2023-05-13T05:32:38.831Z,19.8150
2023-05-13T05:33:40.553Z,19.8140
2023-05-13T05:34:42.272Z,19.8263
2023-05-13T05:35:44.009Z,19.8171
2023-05-13T05:36:45.785Z,19.8194
2023-05-13T05:37:47.489Z,19.8212
2023-05-13T05:38:49.209Z,19.8099
2023-05-13T05:39:50.960Z,19.8068
2023-05-13T05:40:52.680Z,19.8268
2023-05-13T05:41:54.429Z,19.8033
2023-05-13T05:42:56.169Z,19.8068
2023-05-13T05:43:57.896Z,19.8255
2023-05-13T05:44:59.609Z,19.8130
2023-05-13T05:46:01.393Z,19.8025
2023-05-13T05:47:03.081Z,19.8087
2023-05-13T05:48:04.896Z,19.8284
2023-05-13T05:49:06.548Z,19.8181
2023-05-13T05:50:08.284Z,19.8089
2023-05-13T05:51:10.035Z,19.8194
2023-05-13T05:52:11.762Z,19.8128
2023-05-13T05:53:13.472Z,19.8046
2023-05-13T05:54:15.228Z,19.8233
2023-05-13T05:55:16.952Z,19.8148
2023-05-13T05:56:18.688Z,19.8056
2023-05-13T05:57:20.441Z,19.8150
2023-05-13T05:58:22.705Z,19.8109
2023-05-13T05:59:23.882Z,19.8109
2023-05-13T06:00:25.634Z,19.7966
2023-05-13T06:01:27.352Z,19.7972
2023-05-13T06:02:29.188Z,19.7929
2023-05-13T06:03:30.895Z,19.8025
2023-05-13T06:04:32.643Z,19.8044
2023-05-13T06:05:34.302Z,19.8023
2023-05-13T06:06:36.142Z,19.7992
2023-05-13T06:07:37.758Z,19.8017
2023-05-13T06:08:39.511Z,19.7816
2023-05-13T06:09:41.344Z,19.8013
2023-05-13T06:10:43.085Z,19.8003
2023-05-13T06:11:44.813Z,19.7961
2023-05-13T06:12:46.520Z,19.8046
2023-05-13T06:13:48.260Z,19.7916
2023-05-13T06:14:49.984Z,19.7883
2023-05-13T06:15:51.823Z,19.7826
2023-05-13T06:16:54.973Z,19.7929
2023-05-13T06:17:55.231Z,19.8046
2023-05-13T06:18:56.995Z,19.8011
2023-05-13T06:19:58.678Z,19.7912
2023-05-13T06:21:00.399Z,19.7869
2023-05-13T06:22:04.045Z,19.7877
2023-05-13T06:23:03.894Z,19.7972
2023-05-13T06:24:05.596Z,19.7910
2023-05-13T06:25:07.341Z,19.7990
2023-05-13T06:26:09.088Z,19.7974
2023-05-13T06:27:10.839Z,19.7892
2023-05-13T06:28:12.538Z,19.7951
2023-05-13T06:29:14.282Z,19.7927
2023-05-13T06:30:16.025Z,19.7959
2023-05-13T06:31:17.797Z,19.7902
2023-05-13T06:32:19.467Z,19.7992
2023-05-13T06:33:21.246Z,19.7957
2023-05-13T06:34:22.938Z,19.7877
2023-05-13T06:35:24.690Z,19.7799
2023-05-13T06:36:26.439Z,19.7814
2023-05-13T06:37:28.185Z,19.7869
2023-05-13T06:38:29.892Z,19.7869
2023-05-13T06:39:31.630Z,19.7785
2023-05-13T06:40:33.359Z,19.7824
2023-05-13T06:41:35.077Z,19.7717
2023-05-13T06:42:36.830Z,19.7768
2023-05-13T06:43:38.542Z,19.7791
2023-05-13T06:44:40.272Z,19.7768
2023-05-13T06:45:42.030Z,19.7684
2023-05-13T06:46:43.752Z,19.7801
2023-05-13T06:47:45.532Z,19.7912
2023-05-13T06:48:47.246Z,19.7814
2023-05-13T06:49:48.943Z,19.7770
2023-05-13T06:50:50.702Z,19.7869
2023-05-13T06:51:52.440Z,19.7869
2023-05-13T06:52:54.171Z,19.7748
2023-05-13T06:53:55.897Z,19.7803
2023-05-13T06:54:57.642Z,19.7814
2023-05-13T06:55:59.374Z,19.7676
2023-05-13T06:57:01.096Z,19.7692
2023-05-13T06:58:02.818Z,19.7694
2023-05-13T06:59:04.557Z,19.7783
2023-05-13T07:00:06.304Z,19.7715
2023-05-13T07:01:08.081Z,19.7653
2023-05-13T07:02:09.782Z,19.7762
2023-05-13T07:03:11.495Z,19.7725
2023-05-13T07:04:13.254Z,19.7672
2023-05-13T07:05:14.987Z,19.7717
2023-05-13T07:06:16.750Z,19.7725
2023-05-13T07:07:18.444Z,19.7692
2023-05-13T07:08:20.194Z,19.7705
2023-05-13T07:09:21.922Z,19.7641
2023-05-13T07:10:23.874Z,19.7723
2023-05-13T07:11:25.388Z,19.7610
2023-05-13T07:12:27.138Z,19.7664
2023-05-13T07:13:28.840Z,19.7674
2023-05-13T07:14:30.576Z,19.7694
2023-05-13T07:15:32.326Z,19.7696
2023-05-13T07:16:34.040Z,19.7814
2023-05-13T07:17:35.908Z,19.7760
2023-05-13T07:18:37.566Z,19.7791
2023-05-13T07:19:39.229Z,19.7746
2023-05-13T07:20:40.964Z,19.7871
2023-05-13T07:21:42.728Z,19.8056
2023-05-13T07:22:44.433Z,19.8171
2023-05-13T07:23:46.170Z,19.8079
2023-05-13T07:24:47.897Z,19.8212
2023-05-13T07:25:49.622Z,19.8235
2023-05-13T07:26:51.374Z,19.8409
2023-05-13T07:27:53.084Z,19.8387
2023-05-13T07:28:54.812Z,19.8555
2023-05-13T07:29:56.571Z,19.8828
2023-05-13T07:30:58.345Z,19.8680
2023-05-13T07:32:00.012Z,19.8510
2023-05-13T07:33:01.845Z,19.8962
2023-05-13T07:34:03.490Z,19.8818
2023-05-13T07:35:05.206Z,19.8995
2023-05-13T07:36:06.941Z,19.9159
2023-05-13T07:37:08.674Z,19.8814
2023-05-13T07:38:10.428Z,19.9138
2023-05-13T07:39:12.137Z,19.9221
2023-05-13T07:40:13.871Z,19.8980
2023-05-13T07:41:15.636Z,19.9282
2023-05-13T07:42:17.369Z,19.9081
2023-05-13T07:43:19.094Z,19.9023
2023-05-13T07:44:20.806Z,19.9295
2023-05-13T07:45:22.760Z,19.9282
2023-05-13T07:46:24.325Z,19.9212
2023-05-13T07:47:26.044Z,19.9262
2023-05-13T07:48:27.757Z,19.9180
2023-05-13T07:49:29.499Z,19.9397
2023-05-13T07:50:31.222Z,19.9486
2023-05-13T07:51:32.937Z,19.9366
2023-05-13T07:52:34.701Z,19.9447
2023-05-13T07:53:36.447Z,19.9586
2023-05-13T07:54:38.130Z,19.9488
2023-05-13T07:55:39.887Z,19.9734
2023-05-13T07:56:41.616Z,19.9822
2023-05-13T07:57:43.331Z,19.9744
2023-05-13T07:58:45.059Z,19.9703
2023-05-13T07:59:46.816Z,19.9734
2023-05-13T08:00:48.528Z,19.9909
2023-05-13T08:01:50.260Z,19.9866
2023-05-13T08:02:52.191Z,19.9843
2023-05-13T08:03:53.845Z,19.9822
2023-05-13T08:04:55.513Z,20.0026
2023-05-13T08:05:57.203Z,19.9991
2023-05-13T08:06:58.911Z,19.9781
2023-05-13T08:08:00.650Z,19.9960
2023-05-13T08:09:02.404Z,20.0016
2023-05-13T08:10:04.129Z,19.9905
2023-05-13T08:11:05.852Z,20.0005
2023-05-13T08:12:07.595Z,20.0050
2023-05-13T08:13:09.340Z,20.0196
2023-05-13T08:14:11.077Z,20.0330
2023-05-13T08:15:12.784Z,20.0092
2023-05-13T08:16:14.568Z,20.0147
2023-05-13T08:17:16.246Z,20.0235
2023-05-13T08:18:17.987Z,20.0404
2023-05-13T08:19:19.805Z,20.0523
2023-05-13T08:20:21.436Z,20.0502
2023-05-13T08:21:23.174Z,20.0537
2023-05-13T08:22:24.928Z,20.0404
2023-05-13T08:23:40.408Z,20.0570
2023-05-13T08:24:28.384Z,20.0823
2023-05-13T08:25:30.126Z,20.0646
2023-05-13T08:26:31.853Z,20.0769
2023-05-13T08:27:33.563Z,20.0841
2023-05-13T08:28:35.330Z,20.0852
2023-05-13T08:29:37.053Z,20.0960
2023-05-13T08:30:38.759Z,20.0835
2023-05-13T08:31:40.556Z,20.0642
2023-05-13T08:32:42.289Z,20.0823
2023-05-13T08:33:43.961Z,20.0866
2023-05-13T08:34:45.729Z,20.0788
2023-05-13T08:35:47.448Z,20.0886
2023-05-13T08:36:49.170Z,20.1174
2023-05-13T08:37:50.890Z,20.1067
2023-05-13T08:38:52.641Z,20.1149
2023-05-13T08:39:54.354Z,20.1149
2023-05-13T08:40:56.100Z,20.0917
2023-05-13T08:41:57.854Z,20.1117
2023-05-13T08:42:59.560Z,20.1281
2023-05-13T08:44:01.299Z,20.1338
2023-05-13T08:45:03.048Z,20.1184
2023-05-13T08:46:04.807Z,20.1304
2023-05-13T08:47:06.506Z,20.1419
2023-05-13T08:48:08.284Z,20.1373
2023-05-13T08:49:10.004Z,20.1075
2023-05-13T08:50:11.732Z,20.1217
2023-05-13T08:51:13.435Z,20.1086
2023-05-13T08:52:15.202Z,20.1141
2023-05-13T08:53:16.936Z,20.1501
2023-05-13T08:54:18.671Z,20.1437
2023-05-13T08:55:20.521Z,20.1435
2023-05-13T08:56:22.145Z,20.1382
2023-05-13T08:57:23.875Z,20.1478
2023-05-13T08:58:25.607Z,20.1460
2023-05-13T08:59:27.352Z,20.1540
2023-05-13T09:00:29.080Z,20.1478
2023-05-13T09:01:30.831Z,20.1540
2023-05-13T09:02:32.585Z,20.1437
2023-05-13T09:03:34.278Z,20.1384
2023-05-13T09:04:36.038Z,20.1521
2023-05-13T09:05:38.917Z,20.1470
2023-05-13T09:06:39.461Z,20.1626
2023-05-13T09:07:41.193Z,20.1686
2023-05-13T09:08:42.956Z,20.1616
2023-05-13T09:09:44.675Z,20.1780
2023-05-13T09:10:46.395Z,20.1585
2023-05-13T09:11:48.152Z,20.1873
2023-05-13T09:12:49.863Z,20.1778
2023-05-13T09:13:51.665Z,20.1743
2023-05-13T09:14:53.323Z,20.1721
2023-05-13T09:15:55.163Z,20.1647
2023-05-13T09:16:56.813Z,20.1692
2023-05-13T09:17:58.643Z,20.1573
2023-05-13T09:19:00.376Z,20.1616
2023-05-13T09:20:02.082Z,20.1595
2023-05-13T09:21:03.735Z,20.1681
2023-05-13T09:22:05.463Z,20.1577
2023-05-13T09:23:07.245Z,20.1667
2023-05-13T09:24:10.931Z,20.1868
2023-05-13T09:25:10.669Z,20.1745
2023-05-13T09:26:12.418Z,20.1741
2023-05-13T09:27:14.152Z,20.1708
2023-05-13T09:28:15.877Z,20.1766
2023-05-13T09:29:17.685Z,20.1823
2023-05-13T09:30:19.341Z,20.1788
2023-05-13T09:31:21.106Z,20.1667
2023-05-13T09:32:22.810Z,20.1688
2023-05-13T09:33:24.518Z,20.1778
2023-05-13T09:34:26.317Z,20.1755
2023-05-13T09:35:28.005Z,20.1755
2023-05-13T09:36:29.722Z,20.1774
2023-05-13T09:37:31.485Z,20.1788
2023-05-13T09:38:33.218Z,20.1866
2023-05-13T09:39:34.936Z,20.1751
2023-05-13T09:40:36.684Z,20.1833
2023-05-13T09:41:38.383Z,20.1819
2023-05-13T09:42:40.143Z,20.1887
2023-05-13T09:43:41.882Z,20.1879
2023-05-13T09:44:43.594Z,20.1914
2023-05-13T09:45:45.327Z,20.1833
2023-05-13T09:46:47.114Z,20.2000
2023-05-13T09:47:48.851Z,20.2059
2023-05-13T09:48:50.529Z,20.2080
2023-05-13T09:49:52.285Z,20.2010
2023-05-13T09:50:54.033Z,20.2164
2023-05-13T09:51:55.735Z,20.2146
2023-05-13T09:52:57.474Z,20.2187
2023-05-13T09:53:59.192Z,20.2061
2023-05-13T09:55:00.953Z,20.2125
2023-05-13T09:56:02.671Z,20.2061
2023-05-13T09:57:04.399Z,20.2271
2023-05-13T09:58:06.164Z,20.2396
2023-05-13T09:59:07.949Z,20.2370
2023-05-13T10:00:17.845Z,20.2207
2023-05-13T10:01:11.401Z,20.2228
2023-05-13T10:02:13.088Z,20.2232
2023-05-13T10:03:14.884Z,20.2248
2023-05-13T10:04:16.725Z,20.2218
2023-05-13T10:05:18.299Z,20.2103
2023-05-13T10:06:19.996Z,20.2370
2023-05-13T10:07:21.732Z,20.2415
2023-05-13T10:08:23.492Z,20.2339
2023-05-13T10:09:25.202Z,20.2275
2023-05-13T10:10:26.942Z,20.2386
2023-05-13T10:11:28.702Z,20.2474
2023-05-13T10:12:30.494Z,20.2382
2023-05-13T10:13:32.284Z,20.2329
2023-05-13T10:14:33.994Z,20.2427
2023-05-13T10:15:35.743Z,20.2483
2023-05-13T10:16:37.456Z,20.2546
2023-05-13T10:17:39.215Z,20.2413
2023-05-13T10:18:40.968Z,20.2618
2023-05-13T10:19:42.641Z,20.2663
2023-05-13T10:20:44.420Z,20.2390
2023-05-13T10:21:46.133Z,20.2591
2023-05-13T10:22:47.836Z,20.2493
2023-05-13T10:23:49.579Z,20.2579
2023-05-13T10:24:51.329Z,20.2567
2023-05-13T10:25:53.054Z,20.2641
2023-05-13T10:26:54.770Z,20.2610
2023-05-13T10:27:56.519Z,20.2727
2023-05-13T10:28:58.274Z,20.2674
2023-05-13T10:30:02.401Z,20.2540
2023-05-13T10:31:01.691Z,20.2579
2023-05-13T10:32:03.448Z,20.2665
2023-05-13T10:33:05.213Z,20.2663
2023-05-13T10:34:06.885Z,20.2581
2023-05-13T10:35:08.634Z,20.2622
2023-05-13T10:36:10.369Z,20.2725
2023-05-13T10:37:12.090Z,20.2694
2023-05-13T10:38:13.805Z,20.2748
2023-05-13T10:39:15.558Z,20.2900
2023-05-13T10:40:17.321Z,20.2889
2023-05-13T10:41:19.010Z,20.2856
2023-05-13T10:42:20.755Z,20.2852
2023-05-13T10:43:22.481Z,20.2930
2023-05-13T10:44:24.185Z,20.2830
2023-05-13T10:45:25.944Z,20.2821
2023-05-13T10:46:27.697Z,20.2902
2023-05-13T10:47:29.472Z,20.3041
2023-05-13T10:48:31.169Z,20.3064
2023-05-13T10:49:32.850Z,20.2877
2023-05-13T10:50:34.609Z,20.2943
2023-05-13T10:51:36.333Z,20.3039
2023-05-13T10:52:38.038Z,20.3212
2023-05-13T10:53:39.775Z,20.3023
2023-05-13T10:54:41.523Z,20.3008
2023-05-13T10:55:43.234Z,20.3193
2023-05-13T10:56:44.968Z,20.3183
2023-05-13T10:57:46.715Z,20.3140
2023-05-13T10:58:48.432Z,20.3148
2023-05-13T10:59:50.160Z,20.3097
2023-05-13T11:00:51.886Z,20.3275
2023-05-13T11:01:53.695Z,20.3317
2023-05-13T11:02:55.443Z,20.3288
2023-05-13T11:03:57.246Z,20.3193
2023-05-13T11:04:58.844Z,20.3247
2023-05-13T11:06:00.570Z,20.3204
2023-05-13T11:07:02.274Z,20.3171
2023-05-13T11:08:04.018Z,20.3183
2023-05-13T11:09:05.752Z,20.3255
2023-05-13T11:10:07.483Z,20.3275
2023-05-13T11:11:09.207Z,20.3351
2023-05-13T11:12:10.954Z,20.3275
2023-05-13T11:13:12.670Z,20.3347
2023-05-13T11:14:14.392Z,20.3321
2023-05-13T11:15:16.140Z,20.3286
2023-05-13T11:16:17.898Z,20.3310
2023-05-13T11:17:19.580Z,20.3374
2023-05-13T11:18:21.330Z,20.3434
2023-05-13T11:19:23.057Z,20.3380
2023-05-13T11:20:24.773Z,20.3534
2023-05-13T11:21:26.540Z,20.3559
2023-05-13T11:22:28.256Z,20.3415
2023-05-13T11:23:29.977Z,20.3382
2023-05-13T11:24:31.697Z,20.3386
2023-05-13T11:25:33.449Z,20.3339
2023-05-13T11:26:35.184Z,20.3573
2023-05-13T11:27:36.893Z,20.3425
2023-05-13T11:28:38.642Z,20.3545
2023-05-13T11:29:40.359Z,20.3372
2023-05-13T11:30:42.100Z,20.3458
2023-05-13T11:31:44.044Z,20.3460
2023-05-13T11:32:45.590Z,20.3448
2023-05-13T11:33:47.281Z,20.3491
2023-05-13T11:34:49.008Z,20.3660
2023-05-13T11:35:50.752Z,20.3616
2023-05-13T11:36:52.507Z,20.3493
2023-05-13T11:37:54.213Z,20.3495
2023-05-13T11:38:55.945Z,20.3666
2023-05-13T11:39:57.702Z,20.3618
2023-05-13T11:40:59.431Z,20.3723
2023-05-13T11:42:01.152Z,20.3581
2023-05-13T11:43:02.903Z,20.3637
2023-05-13T11:44:04.639Z,20.3699
2023-05-13T11:45:06.333Z,20.3528
2023-05-13T11:46:08.142Z,20.3573
2023-05-13T11:47:09.836Z,20.3723
2023-05-13T11:48:11.549Z,20.3645
2023-05-13T11:49:13.276Z,20.3760
2023-05-13T11:50:15.025Z,20.3680
2023-05-13T11:51:16.749Z,20.3836
2023-05-13T11:52:18.493Z,20.3744
2023-05-13T11:53:20.226Z,20.3752
2023-05-13T11:54:21.925Z,20.3744
2023-05-13T11:55:23.774Z,20.3754
2023-05-13T11:56:25.417Z,20.3775
2023-05-13T11:57:27.141Z,20.3701
2023-05-13T11:58:28.881Z,20.3795
2023-05-13T11:59:38.594Z,20.3805
2023-05-13T12:03:48.558Z,20.3801
2023-05-13T12:04:50.301Z,20.3783
2023-05-13T12:05:52.028Z,20.3908
2023-05-13T12:06:53.765Z,20.3723
2023-05-13T12:07:55.494Z,20.3733
2023-05-13T12:08:57.243Z,20.3826
2023-05-13T12:09:58.989Z,20.3857
2023-05-13T12:11:00.697Z,20.3836
2023-05-13T12:12:02.451Z,20.3783
2023-05-13T12:13:04.190Z,20.3775
2023-05-13T12:14:05.900Z,20.3980
2023-05-13T12:15:07.665Z,20.3805
2023-05-13T12:16:09.433Z,20.4005
2023-05-13T12:17:11.116Z,20.3908
2023-05-13T12:18:12.880Z,20.3826
2023-05-13T12:19:14.770Z,20.3888
2023-05-13T12:20:16.315Z,20.3898
2023-05-13T12:21:18.082Z,20.4046
2023-05-13T12:22:19.779Z,20.3980
2023-05-13T12:23:21.537Z,20.3982
2023-05-13T12:24:23.274Z,20.3990
2023-05-13T12:25:24.978Z,20.4233
2023-05-13T12:26:26.713Z,20.4054
2023-05-13T12:27:28.473Z,20.3970
2023-05-13T12:28:30.191Z,20.3992
2023-05-13T12:29:31.921Z,20.4027
2023-05-13T12:30:33.675Z,20.4077
2023-05-13T12:31:35.437Z,20.4111